createdAt,value
2018-05-17T00:00:06.632Z,23.67
2018-05-17T00:02:32.614Z,23.37
2018-05-17T00:04:59.331Z,24.43
2018-05-17T00:07:25.283Z,22.70
2018-05-17T00:09:51.292Z,24.87
2018-05-17T00:12:17.302Z,24.67
2018-05-17T00:14:43.282Z,22.77
2018-05-17T00:17:09.273Z,23.17
2018-05-17T00:19:35.261Z,23.90
2018-05-17T00:22:01.256Z,25.13
2018-05-17T00:24:27.200Z,27.00
2018-05-17T00:26:56.194Z,24.33
2018-05-17T00:29:22.157Z,25.63
2018-05-17T00:31:48.179Z,27.60
2018-05-17T00:34:14.144Z,24.27
2018-05-17T00:36:40.141Z,28.03
2018-05-17T00:39:06.268Z,29.03
2018-05-17T00:41:32.945Z,27.97
2018-05-17T00:43:58.924Z,26.87
2018-05-17T00:46:24.881Z,27.73
2018-05-17T00:48:52.316Z,29.07
2018-05-17T00:51:18.288Z,28.13
2018-05-17T00:53:44.275Z,28.80
2018-05-17T00:56:10.231Z,30.17
2018-05-17T00:58:36.254Z,29.30
2018-05-17T01:01:02.240Z,28.10
2018-05-17T01:03:28.204Z,30.20
2018-05-17T01:05:54.208Z,27.97
2018-05-17T01:08:20.184Z,27.00
2018-05-17T01:10:46.172Z,28.83
2018-05-17T01:13:12.866Z,32.70
2018-05-17T01:15:38.855Z,26.93
2018-05-17T01:18:05.570Z,28.23
2018-05-17T01:20:31.565Z,30.77
2018-05-17T01:22:57.544Z,29.90
2018-05-17T01:25:23.529Z,30.43
2018-05-17T01:27:50.444Z,29.10
2018-05-17T01:30:16.396Z,30.73
2018-05-17T01:32:42.370Z,30.40
2018-05-17T01:35:08.399Z,31.77
2018-05-17T01:37:46.806Z,29.73
2018-05-17T01:40:13.541Z,32.57
2018-05-17T01:42:39.529Z,32.30
2018-05-17T01:45:05.502Z,31.80
2018-05-17T01:47:31.452Z,32.57
2018-05-17T01:49:57.435Z,33.17
2018-05-17T01:52:23.379Z,32.50
2018-05-17T01:54:49.367Z,31.57
2018-05-17T01:57:15.348Z,32.70
2018-05-17T01:59:48.462Z,32.40
2018-05-17T02:02:14.430Z,31.70
2018-05-17T02:04:40.399Z,32.70
2018-05-17T02:07:06.396Z,33.10
2018-05-17T02:09:32.342Z,35.07
2018-05-17T02:11:58.336Z,36.43
2018-05-17T02:14:24.279Z,35.93
2018-05-17T02:16:50.236Z,34.90
2018-05-17T02:19:16.313Z,37.20
2018-05-17T02:21:42.232Z,35.30
2018-05-17T02:24:08.972Z,34.83
2018-05-17T02:26:34.911Z,35.90
2018-05-17T02:29:00.895Z,36.00
2018-05-17T02:31:26.856Z,35.77
2018-05-17T02:33:52.831Z,37.37
2018-05-17T02:36:19.538Z,34.87
2018-05-17T02:38:45.508Z,36.27
2018-05-17T02:41:11.459Z,35.00
2018-05-17T02:43:38.186Z,37.00
2018-05-17T02:46:04.119Z,36.53
2018-05-17T02:48:30.066Z,33.40
2018-05-17T02:50:56.067Z,37.27
2018-05-17T02:53:22.017Z,38.07
2018-05-17T02:55:48.021Z,38.80
2018-05-17T02:58:14.007Z,38.07
2018-05-17T03:00:40.787Z,41.30
2018-05-17T03:03:07.483Z,41.77
2018-05-17T03:05:33.464Z,41.20
2018-05-17T03:08:00.183Z,42.40
2018-05-17T03:10:26.187Z,36.87
2018-05-17T03:12:52.167Z,38.10
2018-05-17T03:15:18.113Z,39.57
2018-05-17T03:17:51.181Z,40.50
2018-05-17T03:20:17.132Z,39.50
2018-05-17T03:22:43.115Z,40.33
2018-05-17T03:25:09.863Z,41.23
2018-05-17T03:27:36.563Z,39.37
2018-05-17T03:30:02.536Z,39.97
2018-05-17T03:32:29.258Z,42.57
2018-05-17T03:34:55.307Z,43.47
2018-05-17T03:37:21.283Z,43.83
2018-05-17T03:39:47.969Z,44.17
2018-05-17T03:42:13.934Z,45.00
2018-05-17T03:44:39.899Z,42.00
2018-05-17T03:47:06.633Z,43.33
2018-05-17T03:49:33.362Z,43.93
2018-05-17T03:51:59.302Z,44.53
2018-05-17T03:54:25.290Z,45.07
2018-05-17T03:56:52.021Z,43.13
2018-05-17T03:59:18.746Z,45.20
2018-05-17T04:01:57.271Z,42.63
2018-05-17T04:04:35.627Z,43.87
2018-05-17T04:07:01.604Z,43.80
2018-05-17T04:09:27.570Z,42.83
2018-05-17T04:11:53.564Z,44.83
2018-05-17T04:14:19.563Z,43.93
2018-05-17T04:16:45.566Z,44.63
2018-05-17T04:19:11.607Z,45.47
2018-05-17T04:21:37.560Z,43.60
2018-05-17T04:24:03.543Z,44.30
2018-05-17T04:26:29.497Z,42.80
2018-05-17T04:28:55.487Z,44.97
2018-05-17T04:31:22.172Z,45.40
2018-05-17T04:33:48.135Z,48.40
2018-05-17T04:36:14.120Z,46.10
2018-05-17T04:38:40.816Z,45.63
2018-05-17T04:41:06.839Z,45.00
2018-05-17T04:43:32.786Z,45.40
2018-05-17T04:45:58.741Z,45.40
2018-05-17T04:48:24.736Z,46.20
2018-05-17T04:50:50.780Z,45.10
2018-05-17T04:53:16.746Z,44.60
2018-05-17T04:55:42.711Z,45.30
2018-05-17T04:58:09.646Z,46.43
2018-05-17T05:00:35.811Z,46.47
2018-05-17T05:03:01.913Z,47.03
2018-05-17T05:05:27.751Z,44.47
2018-05-17T05:07:53.747Z,43.30
2018-05-17T05:10:19.743Z,45.77
2018-05-17T05:12:45.720Z,45.63
2018-05-17T05:15:11.658Z,45.30
2018-05-17T05:17:37.651Z,45.10
2018-05-17T05:20:03.607Z,45.50
2018-05-17T05:22:30.303Z,45.70
2018-05-17T05:24:56.270Z,46.73
2018-05-17T05:27:22.255Z,48.80
2018-05-17T05:29:48.225Z,45.00
2018-05-17T05:32:14.301Z,45.13
2018-05-17T05:34:41.045Z,42.60
2018-05-17T05:37:07.767Z,43.80
2018-05-17T05:39:33.723Z,45.03
2018-05-17T05:41:59.728Z,45.10
2018-05-17T05:44:25.707Z,44.00
2018-05-17T05:46:51.677Z,46.00
2018-05-17T05:49:17.680Z,43.13
2018-05-17T05:51:44.379Z,43.30
2018-05-17T05:54:10.356Z,43.57
2018-05-17T05:56:36.350Z,43.53
2018-05-17T05:59:02.326Z,41.83
2018-05-17T06:01:28.307Z,41.10
2018-05-17T06:03:54.252Z,45.17
2018-05-17T06:06:20.244Z,43.37
2018-05-17T06:08:46.194Z,43.33
2018-05-17T06:11:12.938Z,39.67
2018-05-17T06:13:38.927Z,40.53
2018-05-17T06:16:04.930Z,41.50
2018-05-17T06:18:31.637Z,40.33
2018-05-17T06:20:57.623Z,39.67
2018-05-17T06:23:23.613Z,40.90
2018-05-17T06:25:49.563Z,40.63
2018-05-17T06:28:15.552Z,39.73
2018-05-17T06:30:41.545Z,38.70
2018-05-17T06:33:08.266Z,37.27
2018-05-17T06:35:34.224Z,39.10
2018-05-17T06:38:00.208Z,37.13
2018-05-17T06:40:27.338Z,35.40
2018-05-17T06:42:55.283Z,38.73
2018-05-17T06:45:21.245Z,38.67
2018-05-17T06:47:47.236Z,36.80
2018-05-17T06:50:13.216Z,39.77
2018-05-17T06:52:39.223Z,37.57
2018-05-17T06:55:05.179Z,35.50
2018-05-17T06:57:31.147Z,35.00
2018-05-17T06:59:57.905Z,36.43
2018-05-17T07:02:24.626Z,36.17
2018-05-17T07:04:50.629Z,35.80
2018-05-17T07:07:16.590Z,33.63
2018-05-17T07:09:42.602Z,37.30
2018-05-17T07:12:08.546Z,37.83
2018-05-17T07:14:35.358Z,33.17
2018-05-17T07:17:02.101Z,34.70
2018-05-17T07:19:28.828Z,35.97
2018-05-17T07:21:54.816Z,32.30
2018-05-17T07:24:20.779Z,31.17
2018-05-17T07:26:46.735Z,31.20
2018-05-17T07:29:12.724Z,30.10
2018-05-17T07:31:38.711Z,31.77
2018-05-17T07:34:04.660Z,33.43
2018-05-17T07:36:30.636Z,31.23
2018-05-17T07:38:56.591Z,32.83
2018-05-17T07:41:22.558Z,33.60
2018-05-17T07:43:48.508Z,32.83
2018-05-17T07:46:15.251Z,31.20
2018-05-17T07:48:41.968Z,31.33
2018-05-17T07:51:07.931Z,33.50
2018-05-17T07:53:33.942Z,29.73
2018-05-17T07:55:59.897Z,30.00
2018-05-17T07:58:25.882Z,32.20
2018-05-17T08:00:51.823Z,30.40
2018-05-17T08:03:17.803Z,31.53
2018-05-17T08:05:43.844Z,31.27
2018-05-17T08:08:10.542Z,29.13
2018-05-17T08:10:36.495Z,29.67
2018-05-17T08:13:02.475Z,29.80
2018-05-17T08:15:28.466Z,30.20
2018-05-17T08:17:54.545Z,30.60
2018-05-17T08:20:21.159Z,29.90
2018-05-17T08:22:47.154Z,29.20
2018-05-17T08:25:13.908Z,28.10
2018-05-17T08:27:41.659Z,26.37
2018-05-17T08:30:09.467Z,26.33
2018-05-17T08:32:37.275Z,27.73
2018-05-17T08:35:05.043Z,24.67
2018-05-17T08:37:30.986Z,23.17
2018-05-17T08:39:56.963Z,23.40
2018-05-17T08:42:22.924Z,22.60
2018-05-17T08:44:49.652Z,22.83
2018-05-17T08:47:15.598Z,21.77
2018-05-17T08:49:41.636Z,21.30
2018-05-17T08:52:07.581Z,19.97
2018-05-17T08:54:34.285Z,19.93
2018-05-17T08:57:00.264Z,20.90
2018-05-17T08:59:26.249Z,18.60
2018-05-17T09:01:52.222Z,20.77
2018-05-17T09:04:18.205Z,16.77
2018-05-17T09:06:45.943Z,17.13
2018-05-17T09:09:13.779Z,16.60
2018-05-17T09:11:41.575Z,16.70
2018-05-17T09:14:07.522Z,17.10
2018-05-17T09:16:33.491Z,16.77
2018-05-17T09:19:00.231Z,16.17
2018-05-17T09:21:26.179Z,15.47
2018-05-17T09:23:53.136Z,14.60
2018-05-17T09:26:19.824Z,16.33
2018-05-17T09:28:45.805Z,15.50
2018-05-17T09:31:11.776Z,14.17
2018-05-17T09:33:37.784Z,15.97
2018-05-17T09:36:04.536Z,14.83
2018-05-17T09:38:30.529Z,14.83
2018-05-17T09:40:56.505Z,14.93
2018-05-17T09:43:22.451Z,14.60
2018-05-17T09:45:48.423Z,14.87
2018-05-17T09:48:14.410Z,15.00
2018-05-17T09:50:40.442Z,15.50
2018-05-17T09:53:06.436Z,13.50
2018-05-17T09:55:32.411Z,14.80
2018-05-17T09:57:58.407Z,15.10
2018-05-17T10:00:24.400Z,14.60
2018-05-17T10:02:50.385Z,14.53
2018-05-17T10:05:16.376Z,14.30
2018-05-17T10:07:42.369Z,15.10
2018-05-17T10:10:08.354Z,15.03
2018-05-17T10:12:35.088Z,15.20
2018-05-17T10:15:01.089Z,14.90
2018-05-17T10:17:28.179Z,14.90
2018-05-17T10:19:54.127Z,14.67
2018-05-17T10:22:20.115Z,16.70
2018-05-17T10:24:46.065Z,14.67
2018-05-17T10:27:12.094Z,15.23
2018-05-17T10:29:38.037Z,15.50
2018-05-17T10:32:04.032Z,14.40
2018-05-17T10:34:30.728Z,14.93
2018-05-17T10:36:56.671Z,14.97
2018-05-17T10:39:22.656Z,15.03
2018-05-17T10:41:49.346Z,15.17
2018-05-17T10:44:15.320Z,14.93
2018-05-17T10:46:41.278Z,14.33
2018-05-17T10:49:07.984Z,15.60
2018-05-17T10:51:33.933Z,14.97
2018-05-17T10:53:59.924Z,14.13
2018-05-17T10:56:25.883Z,14.30
2018-05-17T10:58:51.825Z,15.10
2018-05-17T11:01:17.819Z,16.20
2018-05-17T11:03:43.768Z,16.33
2018-05-17T11:06:09.925Z,14.77
2018-05-17T11:08:35.883Z,15.67
2018-05-17T11:11:01.871Z,15.80
2018-05-17T11:13:34.867Z,16.27
2018-05-17T11:16:00.846Z,15.47
2018-05-17T11:18:26.858Z,15.40
2018-05-17T11:20:52.872Z,15.70
2018-05-17T11:23:19.595Z,15.80
2018-05-17T11:25:45.550Z,14.80
2018-05-17T11:28:12.288Z,16.70
2018-05-17T11:30:38.235Z,14.87
2018-05-17T11:33:04.978Z,16.70
2018-05-17T11:35:30.925Z,18.07
2018-05-17T11:37:57.664Z,16.17
2018-05-17T11:40:23.615Z,16.33
2018-05-17T11:42:50.303Z,17.67
2018-05-17T11:45:17.047Z,18.17
2018-05-17T11:47:43.031Z,18.33
2018-05-17T11:50:09.026Z,17.20
2018-05-17T11:52:34.980Z,16.50
2018-05-17T11:55:00.957Z,18.67
2018-05-17T11:57:27.679Z,18.23
2018-05-17T11:59:53.728Z,18.27
2018-05-17T12:02:19.686Z,16.00
2018-05-17T12:04:45.635Z,18.37
2018-05-17T12:07:12.397Z,16.03
2018-05-17T12:09:38.393Z,18.97
2018-05-17T12:12:04.370Z,16.53
2018-05-17T12:14:30.315Z,16.57
2018-05-17T12:16:56.323Z,16.93
2018-05-17T12:19:23.051Z,17.43
2018-05-17T12:21:48.991Z,17.50
2018-05-17T12:24:14.980Z,17.33
2018-05-17T12:26:41.017Z,17.57
2018-05-17T12:29:06.996Z,15.50
2018-05-17T12:31:34.682Z,16.13
2018-05-17T12:34:00.566Z,16.57
2018-05-17T12:36:26.540Z,17.23
2018-05-17T12:38:52.523Z,15.80
2018-05-17T12:41:18.507Z,16.60
2018-05-17T12:43:44.514Z,16.43
2018-05-17T12:46:10.675Z,15.00
2018-05-17T12:48:36.672Z,16.70
2018-05-17T12:51:02.654Z,15.80
2018-05-17T12:53:28.619Z,17.43
2018-05-17T12:55:54.596Z,15.67
2018-05-17T12:58:20.571Z,16.80
2018-05-17T13:00:46.506Z,15.10
2018-05-17T13:03:12.548Z,15.30
2018-05-17T13:05:38.498Z,16.10
2018-05-17T13:08:04.471Z,17.10
2018-05-17T13:10:30.467Z,16.50
2018-05-17T13:12:56.539Z,15.47
2018-05-17T13:15:22.423Z,16.63
2018-05-17T13:17:48.457Z,14.77
2018-05-17T13:20:14.428Z,17.00
2018-05-17T13:22:41.163Z,14.60
2018-05-17T13:25:08.929Z,15.60
2018-05-17T13:27:36.658Z,14.97
2018-05-17T13:30:04.447Z,16.90
2018-05-17T13:32:32.189Z,15.83
2018-05-17T13:34:59.935Z,15.90
2018-05-17T13:37:27.752Z,15.70
2018-05-17T13:39:55.471Z,17.13
2018-05-17T13:42:23.251Z,15.43
2018-05-17T13:44:50.985Z,16.43
2018-05-17T13:47:17.672Z,15.80
2018-05-17T13:49:43.718Z,15.60
2018-05-17T13:52:09.800Z,16.57
2018-05-17T13:54:36.522Z,16.37
2018-05-17T13:57:02.490Z,18.53
2018-05-17T13:59:29.187Z,16.20
2018-05-17T14:01:55.199Z,14.97
2018-05-17T14:04:21.150Z,15.07
2018-05-17T14:06:47.150Z,15.57
2018-05-17T14:09:13.849Z,14.90
2018-05-17T14:11:39.961Z,16.20
2018-05-17T14:14:05.952Z,16.80
2018-05-17T14:16:32.675Z,17.93
2018-05-17T14:18:58.630Z,15.60
2018-05-17T14:21:24.627Z,17.43
2018-05-17T14:23:50.591Z,16.80
2018-05-17T14:26:16.542Z,17.47
2018-05-17T14:28:42.550Z,16.77
2018-05-17T14:31:08.487Z,19.37
2018-05-17T14:33:34.602Z,16.20
2018-05-17T14:36:00.548Z,18.07
2018-05-17T14:38:26.515Z,18.10
2018-05-17T14:40:52.492Z,17.43
2018-05-17T14:43:19.195Z,16.57
2018-05-17T14:45:45.183Z,14.90
2018-05-17T14:48:11.168Z,16.40
2018-05-17T14:50:37.112Z,17.30
2018-05-17T14:53:03.091Z,16.83
2018-05-17T14:55:29.835Z,14.70
2018-05-17T14:57:56.514Z,17.20
2018-05-17T15:00:22.487Z,15.73
2018-05-17T15:02:48.503Z,15.83
2018-05-17T15:05:14.441Z,18.17
2018-05-17T15:07:40.475Z,15.43
2018-05-17T15:10:06.447Z,16.40
2018-05-17T15:12:32.422Z,16.80
2018-05-17T15:14:59.115Z,16.17
2018-05-17T15:17:25.097Z,16.40
2018-05-17T15:19:51.808Z,15.50
2018-05-17T15:22:17.805Z,16.33
2018-05-17T15:24:43.897Z,14.90
2018-05-17T15:27:09.798Z,14.47
2018-05-17T15:29:35.812Z,16.50
2018-05-17T15:32:02.499Z,14.97
2018-05-17T15:34:28.482Z,17.83
2018-05-17T15:36:55.170Z,16.60
2018-05-17T15:39:21.114Z,17.20
2018-05-17T15:41:47.114Z,17.27
2018-05-17T15:44:13.847Z,17.33
2018-05-17T15:46:39.858Z,17.27
2018-05-17T15:49:05.798Z,17.57
2018-05-17T15:51:31.775Z,14.90
2018-05-17T15:53:58.508Z,17.03
2018-05-17T15:56:24.480Z,17.17
2018-05-17T15:58:50.459Z,17.37
2018-05-17T16:01:16.412Z,17.37
2018-05-17T16:03:42.426Z,17.03
2018-05-17T16:06:08.368Z,17.53
2018-05-17T16:08:34.450Z,16.93
2018-05-17T16:11:00.327Z,16.03
2018-05-17T16:13:26.648Z,17.53
2018-05-17T16:15:52.600Z,16.83
2018-05-17T16:18:18.566Z,16.27
2018-05-17T16:20:44.540Z,16.73
2018-05-17T16:23:11.250Z,17.00
2018-05-17T16:25:37.235Z,16.67
2018-05-17T16:28:03.191Z,16.90
2018-05-17T16:30:29.190Z,17.27
2018-05-17T16:32:55.930Z,17.00
2018-05-17T16:35:21.911Z,17.70
2018-05-17T16:37:47.854Z,17.53
2018-05-17T16:40:13.839Z,18.70
2018-05-17T16:42:39.820Z,17.80
2018-05-17T16:45:06.729Z,17.43
2018-05-17T16:47:32.740Z,17.43
2018-05-17T16:50:00.108Z,18.07
2018-05-17T16:52:26.099Z,16.80
2018-05-17T16:54:52.797Z,18.53
2018-05-17T16:57:18.784Z,18.30
2018-05-17T16:59:45.483Z,21.60
2018-05-17T17:02:11.505Z,18.23
2018-05-17T17:04:37.527Z,18.10
2018-05-17T17:07:03.490Z,18.80
2018-05-17T17:09:32.706Z,18.33
2018-05-17T17:12:00.438Z,21.27
2018-05-17T17:14:28.182Z,19.27
2018-05-17T17:16:56.115Z,19.03
2018-05-17T17:19:23.871Z,19.63
2018-05-17T17:21:51.610Z,19.57
2018-05-17T17:24:19.372Z,20.00
2018-05-17T17:26:45.362Z,19.17
2018-05-17T17:29:12.061Z,19.63
2018-05-17T17:31:38.092Z,20.97
2018-05-17T17:34:04.061Z,21.27
2018-05-17T17:36:30.059Z,18.80
2018-05-17T17:38:56.008Z,18.80
2018-05-17T17:41:22.139Z,18.67
2018-05-17T17:43:48.082Z,19.90
2018-05-17T17:46:14.055Z,19.03
2018-05-17T17:48:40.803Z,19.17
2018-05-17T17:51:06.783Z,21.10
2018-05-17T17:53:32.920Z,20.37
2018-05-17T17:55:58.908Z,17.10
2018-05-17T17:58:26.248Z,19.93
2018-05-17T18:00:52.251Z,17.87
2018-05-17T18:03:18.228Z,18.03
2018-05-17T18:05:44.219Z,16.90
2018-05-17T18:08:10.182Z,16.10
2018-05-17T18:10:36.192Z,17.40
2018-05-17T18:13:02.148Z,18.70
2018-05-17T18:15:28.140Z,16.00
2018-05-17T18:17:54.850Z,16.83
2018-05-17T18:20:20.811Z,17.30
2018-05-17T18:22:46.824Z,17.23
2018-05-17T18:25:12.799Z,15.73
2018-05-17T18:27:38.827Z,18.40
2018-05-17T18:30:04.823Z,15.93
2018-05-17T18:32:30.879Z,15.63
2018-05-17T18:34:56.790Z,16.00
2018-05-17T18:37:22.844Z,15.20
2018-05-17T18:39:48.841Z,14.70
2018-05-17T18:42:15.539Z,16.10
2018-05-17T18:44:41.527Z,15.53
2018-05-17T18:47:08.271Z,15.10
2018-05-17T18:49:34.976Z,15.63
2018-05-17T18:52:00.939Z,15.43
2018-05-17T18:54:26.991Z,14.30
2018-05-17T18:56:53.000Z,16.63
2018-05-17T18:59:18.866Z,15.37
2018-05-17T19:01:45.680Z,15.03
2018-05-17T19:04:11.632Z,14.73
2018-05-17T19:06:37.623Z,14.40
2018-05-17T19:09:04.635Z,15.07
2018-05-17T19:11:30.587Z,16.93
2018-05-17T19:13:57.360Z,15.47
2018-05-17T19:16:23.408Z,14.23
2018-05-17T19:18:50.407Z,14.67
2018-05-17T19:21:16.385Z,15.53
2018-05-17T19:23:43.116Z,14.00
2018-05-17T19:26:09.075Z,14.13
2018-05-17T19:28:35.851Z,13.60
2018-05-17T19:31:01.819Z,15.30
2018-05-17T19:33:27.776Z,13.77
2018-05-17T19:35:53.785Z,14.70
2018-05-17T19:38:19.734Z,13.10
2018-05-17T19:40:45.674Z,13.13
2018-05-17T19:43:11.651Z,15.17
2018-05-17T19:45:37.670Z,13.53
2018-05-17T19:48:04.392Z,14.17
2018-05-17T19:50:30.411Z,13.70
2018-05-17T19:52:56.368Z,12.77
2018-05-17T19:55:22.343Z,14.40
2018-05-17T19:57:49.060Z,15.40
2018-05-17T20:00:15.031Z,13.97
2018-05-17T20:02:41.715Z,14.20
2018-05-17T20:05:07.749Z,15.10
2018-05-17T20:07:33.708Z,17.00
2018-05-17T20:09:59.707Z,14.13
2018-05-17T20:12:25.700Z,14.60
2018-05-17T20:14:51.660Z,15.00
2018-05-17T20:17:18.355Z,15.50
2018-05-17T20:19:44.359Z,14.20
2018-05-17T20:22:10.404Z,15.40
2018-05-17T20:24:36.327Z,14.47
2018-05-17T20:27:03.051Z,14.30
2018-05-17T20:29:29.024Z,13.77
2018-05-17T20:31:54.967Z,14.73
2018-05-17T20:34:21.096Z,16.50
2018-05-17T20:36:47.109Z,14.67
2018-05-17T20:39:13.083Z,13.80
2018-05-17T20:41:39.036Z,14.97
2018-05-17T20:44:05.026Z,15.00
2018-05-17T20:46:31.716Z,15.00
2018-05-17T20:48:57.763Z,16.30
2018-05-17T20:51:23.761Z,13.43
2018-05-17T20:53:50.452Z,15.73
2018-05-17T20:56:16.407Z,14.03
2018-05-17T20:58:42.410Z,15.60
2018-05-17T21:01:08.376Z,14.13
2018-05-17T21:03:34.374Z,14.50
2018-05-17T21:06:00.322Z,13.07
2018-05-17T21:08:26.347Z,13.37
2018-05-17T21:10:52.303Z,14.47
2018-05-17T21:13:18.340Z,13.07
2018-05-17T21:15:44.339Z,14.37
2018-05-17T21:18:11.048Z,15.17
2018-05-17T21:20:37.035Z,14.20
2018-05-17T21:23:02.979Z,14.60
2018-05-17T21:25:29.029Z,13.73
2018-05-17T21:27:55.030Z,14.00
2018-05-17T21:30:21.012Z,14.90
2018-05-17T21:32:46.956Z,14.50
2018-05-17T21:35:12.962Z,14.00
2018-05-17T21:37:38.907Z,15.20
2018-05-17T21:40:04.880Z,13.60
2018-05-17T21:42:31.614Z,14.37
2018-05-17T21:44:57.661Z,14.97
2018-05-17T21:47:24.307Z,14.23
2018-05-17T21:49:50.247Z,13.67
2018-05-17T21:52:16.224Z,14.80
2018-05-17T21:54:42.936Z,13.00
2018-05-17T21:57:08.944Z,14.23
2018-05-17T21:59:34.932Z,13.83
2018-05-17T22:02:00.878Z,14.77
2018-05-17T22:04:27.731Z,16.50
2018-05-17T22:06:54.475Z,14.37
2018-05-17T22:09:20.410Z,13.93
2018-05-17T22:11:46.393Z,14.33
2018-05-17T22:14:12.347Z,14.60
2018-05-17T22:16:38.291Z,15.73
2018-05-17T22:19:04.271Z,15.87
2018-05-17T22:21:30.955Z,15.90
2018-05-17T22:23:56.960Z,14.90
2018-05-17T22:26:23.680Z,15.73
2018-05-17T22:28:49.663Z,16.20
2018-05-17T22:31:16.160Z,17.10
2018-05-17T22:33:42.157Z,14.90
2018-05-17T22:36:08.163Z,17.03
2018-05-17T22:38:34.861Z,17.80
2018-05-17T22:41:00.836Z,14.37
2018-05-17T22:43:26.792Z,16.73
2018-05-17T22:45:53.528Z,16.17
2018-05-17T22:48:20.460Z,14.80
2018-05-17T22:50:46.448Z,16.77
2018-05-17T22:53:13.141Z,15.03
2018-05-17T22:55:39.164Z,15.27
2018-05-17T22:58:17.537Z,15.73
2018-05-17T23:00:43.516Z,15.37
2018-05-17T23:03:09.504Z,15.67
2018-05-17T23:05:36.020Z,17.57
2018-05-17T23:08:02.029Z,15.53
2018-05-17T23:10:28.001Z,16.07
2018-05-17T23:12:54.029Z,15.30
2018-05-17T23:15:19.992Z,16.33
2018-05-17T23:17:45.984Z,15.83
2018-05-17T23:20:11.964Z,16.93
2018-05-17T23:22:38.003Z,15.73
2018-05-17T23:25:03.964Z,14.43
2018-05-17T23:27:30.704Z,14.87
2018-05-17T23:29:57.424Z,15.40
2018-05-17T23:32:23.408Z,14.73
2018-05-17T23:34:50.125Z,13.10
2018-05-17T23:37:18.084Z,13.73
2018-05-17T23:39:44.073Z,15.17
2018-05-17T23:42:10.788Z,13.90
2018-05-17T23:44:36.749Z,13.80
2018-05-17T23:47:02.733Z,14.50
2018-05-17T23:49:28.722Z,13.00
2018-05-17T23:51:55.449Z,13.43
2018-05-17T23:54:21.425Z,15.17
2018-05-17T23:56:48.156Z,14.53
2018-05-17T23:59:14.152Z,13.00
